Terminal Aerodrome Forecast
Issued by NWS

Home | Current Version | Previous Version | Text Only | Print | Product List | Glossary On
Versions: 1 2 3 4 5 6 7 8 9 10 11 12
589
FTUS43 KUNR 302320
TAFGCC
TAF
KGCC 302320Z 0100/0124 03012KT P6SM FEW040 BKN100
     FM010200 04005KT P6SM SCT150=

USA.gov is the U.S. government's official web portal to all federal, state and local government web resources and services.